sensor_id;sensor_type;location;lat;lon;timestamp;P1;durP1;ratioP1;P2;durP2;ratioP2
8735;SDS011;4404;49.308;12.178;2023-05-19T06:20:28;1.00;;;1.00;;
8735;SDS011;4404;49.308;12.178;2023-05-19T06:22:30;1.00;;;1.00;;
8735;SDS011;4404;49.308;12.178;2023-05-19T06:27:09;1.00;;;1.00;;
8735;SDS011;4404;49.308;12.178;2023-05-19T06:41:05;1.00;;;1.00;;
8735;SDS011;4404;49.308;12.178;2023-05-19T06:46:09;1.03;;;1.03;;
8735;SDS011;4404;49.308;12.178;2023-05-19T06:48:13;1.10;;;1.10;;
8735;SDS011;4404;49.308;12.178;2023-05-19T07:28:41;1.00;;;1.00;;
8735;SDS011;4404;49.308;12.178;2023-05-19T07:34:05;0.90;;;0.90;;
8735;SDS011;4404;49.308;12.178;2023-05-19T07:36:07;0.93;;;0.93;;
8735;SDS011;4404;49.308;12.178;2023-05-19T07:57:08;1.03;;;1.03;;
8735;SDS011;4404;49.308;12.178;2023-05-19T07:59:10;1.10;;;1.10;;
8735;SDS011;4404;49.308;12.178;2023-05-19T09:05:07;0.90;;;0.90;;
8735;SDS011;4404;49.308;12.178;2023-05-19T10:06:14;1.03;;;1.03;;
8735;SDS011;4404;49.308;12.178;2023-05-19T10:44:12;0.80;;;0.80;;
8735;SDS011;4404;49.308;12.178;2023-05-19T10:47:25;0.90;;;0.90;;
8735;SDS011;4404;49.308;12.178;2023-05-19T11:14:59;0.97;;;0.97;;
8735;SDS011;4404;49.308;12.178;2023-05-19T11:17:04;0.80;;;0.80;;
8735;SDS011;4404;49.308;12.178;2023-05-19T13:20:37;0.80;;;0.80;;
8735;SDS011;4404;49.308;12.178;2023-05-19T13:22:42;1.10;;;1.10;;
8735;SDS011;4404;49.308;12.178;2023-05-19T13:24:44;0.83;;;0.83;;
8735;SDS011;4404;49.308;12.178;2023-05-19T13:26:47;0.70;;;0.70;;
8735;SDS011;4404;49.308;12.178;2023-05-19T13:28:49;0.60;;;0.60;;
8735;SDS011;4404;49.308;12.178;2023-05-19T13:30:51;0.70;;;0.70;;
8735;SDS011;4404;49.308;12.178;2023-05-19T13:32:54;0.80;;;0.80;;
8735;SDS011;4404;49.308;12.178;2023-05-19T13:34:56;0.70;;;0.70;;
8735;SDS011;4404;49.308;12.178;2023-05-19T13:36:58;0.70;;;0.70;;
8735;SDS011;4404;49.308;12.178;2023-05-19T13:39:02;0.60;;;0.60;;
8735;SDS011;4404;49.308;12.178;2023-05-19T13:41:04;0.67;;;0.67;;
8735;SDS011;4404;49.308;12.178;2023-05-19T13:43:06;0.70;;;0.70;;
8735;SDS011;4404;49.308;12.178;2023-05-19T13:45:08;0.80;;;0.80;;
8735;SDS011;4404;49.308;12.178;2023-05-19T13:47:11;0.77;;;0.77;;
8735;SDS011;4404;49.308;12.178;2023-05-19T13:49:13;0.80;;;0.80;;
8735;SDS011;4404;49.308;12.178;2023-05-19T13:51:15;0.70;;;0.70;;
8735;SDS011;4404;49.308;12.178;2023-05-19T13:53:17;0.70;;;0.70;;
8735;SDS011;4404;49.308;12.178;2023-05-19T13:55:21;0.70;;;0.70;;
8735;SDS011;4404;49.308;12.178;2023-05-19T13:57:23;0.60;;;0.60;;
8735;SDS011;4404;49.308;12.178;2023-05-19T13:59:25;0.60;;;0.60;;
8735;SDS011;4404;49.308;12.178;2023-05-19T14:01:27;0.60;;;0.60;;
8735;SDS011;4404;49.308;12.178;2023-05-19T14:03:29;0.60;;;0.60;;
8735;SDS011;4404;49.308;12.178;2023-05-19T14:05:31;0.60;;;0.60;;
8735;SDS011;4404;49.308;12.178;2023-05-19T14:07:34;0.70;;;0.70;;
8735;SDS011;4404;49.308;12.178;2023-05-19T14:09:38;0.67;;;0.67;;
8735;SDS011;4404;49.308;12.178;2023-05-19T14:11:42;0.60;;;0.60;;
8735;SDS011;4404;49.308;12.178;2023-05-19T14:13:44;0.60;;;0.60;;
8735;SDS011;4404;49.308;12.178;2023-05-19T14:15:48;0.70;;;0.70;;
8735;SDS011;4404;49.308;12.178;2023-05-19T14:17:50;0.60;;;0.60;;
8735;SDS011;4404;49.308;12.178;2023-05-19T14:19:53;0.60;;;0.60;;
8735;SDS011;4404;49.308;12.178;2023-05-19T14:21:55;0.60;;;0.60;;
8735;SDS011;4404;49.308;12.178;2023-05-19T14:23:57;0.70;;;0.70;;
8735;SDS011;4404;49.308;12.178;2023-05-19T14:26:00;0.70;;;0.70;;
8735;SDS011;4404;49.308;12.178;2023-05-19T14:28:04;0.70;;;0.70;;
8735;SDS011;4404;49.308;12.178;2023-05-19T14:30:06;0.70;;;0.70;;
8735;SDS011;4404;49.308;12.178;2023-05-19T14:32:10;0.77;;;0.77;;
8735;SDS011;4404;49.308;12.178;2023-05-19T14:34:14;0.80;;;0.80;;
8735;SDS011;4404;49.308;12.178;2023-05-19T14:36:19;0.70;;;0.70;;
8735;SDS011;4404;49.308;12.178;2023-05-19T14:38:21;0.70;;;0.70;;
8735;SDS011;4404;49.308;12.178;2023-05-19T14:40:24;0.60;;;0.60;;
8735;SDS011;4404;49.308;12.178;2023-05-19T14:42:26;0.60;;;0.60;;
8735;SDS011;4404;49.308;12.178;2023-05-19T14:44:32;0.70;;;0.70;;
8735;SDS011;4404;49.308;12.178;2023-05-19T14:46:34;0.70;;;0.70;;
8735;SDS011;4404;49.308;12.178;2023-05-19T14:48:36;0.70;;;0.70;;
8735;SDS011;4404;49.308;12.178;2023-05-19T14:50:38;0.60;;;0.60;;
8735;SDS011;4404;49.308;12.178;2023-05-19T14:52:40;0.63;;;0.63;;
8735;SDS011;4404;49.308;12.178;2023-05-19T14:54:42;0.60;;;0.60;;
8735;SDS011;4404;49.308;12.178;2023-05-19T14:56:44;0.70;;;0.70;;
8735;SDS011;4404;49.308;12.178;2023-05-19T14:58:46;0.60;;;0.60;;
8735;SDS011;4404;49.308;12.178;2023-05-19T15:00:49;0.60;;;0.60;;
8735;SDS011;4404;49.308;12.178;2023-05-19T15:02:51;0.70;;;0.70;;
8735;SDS011;4404;49.308;12.178;2023-05-19T15:04:53;0.60;;;0.60;;
8735;SDS011;4404;49.308;12.178;2023-05-19T15:06:55;0.70;;;0.70;;
8735;SDS011;4404;49.308;12.178;2023-05-19T15:08:57;0.60;;;0.60;;
8735;SDS011;4404;49.308;12.178;2023-05-19T15:10:59;0.70;;;0.70;;
8735;SDS011;4404;49.308;12.178;2023-05-19T15:13:01;0.70;;;0.70;;
8735;SDS011;4404;49.308;12.178;2023-05-19T15:15:04;0.70;;;0.70;;
8735;SDS011;4404;49.308;12.178;2023-05-19T15:17:08;0.70;;;0.70;;
8735;SDS011;4404;49.308;12.178;2023-05-19T15:19:11;0.70;;;0.70;;
8735;SDS011;4404;49.308;12.178;2023-05-19T15:21:13;0.70;;;0.70;;
8735;SDS011;4404;49.308;12.178;2023-05-19T15:23:15;0.80;;;0.80;;
8735;SDS011;4404;49.308;12.178;2023-05-19T15:25:17;0.70;;;0.70;;
8735;SDS011;4404;49.308;12.178;2023-05-19T15:27:19;0.80;;;0.80;;
8735;SDS011;4404;49.308;12.178;2023-05-19T15:29:21;0.70;;;0.70;;
8735;SDS011;4404;49.308;12.178;2023-05-19T15:31:23;0.70;;;0.70;;
8735;SDS011;4404;49.308;12.178;2023-05-19T15:33:26;0.70;;;0.70;;
8735;SDS011;4404;49.308;12.178;2023-05-19T15:35:28;0.70;;;0.70;;
8735;SDS011;4404;49.308;12.178;2023-05-19T15:37:30;0.60;;;0.60;;
8735;SDS011;4404;49.308;12.178;2023-05-19T15:39:32;0.60;;;0.60;;
8735;SDS011;4404;49.308;12.178;2023-05-19T15:41:34;0.70;;;0.70;;
8735;SDS011;4404;49.308;12.178;2023-05-19T15:43:37;0.60;;;0.60;;
8735;SDS011;4404;49.308;12.178;2023-05-19T15:45:40;0.70;;;0.70;;
8735;SDS011;4404;49.308;12.178;2023-05-19T15:47:42;0.70;;;0.70;;
8735;SDS011;4404;49.308;12.178;2023-05-19T15:49:45;0.70;;;0.70;;
8735;SDS011;4404;49.308;12.178;2023-05-19T15:51:47;0.70;;;0.70;;
8735;SDS011;4404;49.308;12.178;2023-05-19T15:53:49;0.70;;;0.70;;
8735;SDS011;4404;49.308;12.178;2023-05-19T15:55:52;0.70;;;0.70;;
8735;SDS011;4404;49.308;12.178;2023-05-19T15:57:56;0.60;;;0.60;;
8735;SDS011;4404;49.308;12.178;2023-05-19T15:59:58;0.70;;;0.70;;
8735;SDS011;4404;49.308;12.178;2023-05-19T16:02:00;0.60;;;0.60;;
8735;SDS011;4404;49.308;12.178;2023-05-19T16:04:02;0.70;;;0.70;;
8735;SDS011;4404;49.308;12.178;2023-05-19T16:06:06;0.70;;;0.70;;
8735;SDS011;4404;49.308;12.178;2023-05-19T16:08:08;0.70;;;0.70;;
8735;SDS011;4404;49.308;12.178;2023-05-19T16:10:10;0.70;;;0.70;;
8735;SDS011;4404;49.308;12.178;2023-05-19T16:12:12;0.70;;;0.70;;
8735;SDS011;4404;49.308;12.178;2023-05-19T16:14:14;0.80;;;0.80;;
8735;SDS011;4404;49.308;12.178;2023-05-19T16:16:16;0.80;;;0.80;;
8735;SDS011;4404;49.308;12.178;2023-05-19T16:18:18;0.70;;;0.70;;
8735;SDS011;4404;49.308;12.178;2023-05-19T16:20:20;0.80;;;0.80;;
8735;SDS011;4404;49.308;12.178;2023-05-19T16:22:28;0.60;;;0.60;;
8735;SDS011;4404;49.308;12.178;2023-05-19T16:24:30;0.70;;;0.70;;
8735;SDS011;4404;49.308;12.178;2023-05-19T16:26:32;0.70;;;0.70;;
8735;SDS011;4404;49.308;12.178;2023-05-19T16:28:34;0.60;;;0.60;;
8735;SDS011;4404;49.308;12.178;2023-05-19T16:30:36;0.70;;;0.70;;
8735;SDS011;4404;49.308;12.178;2023-05-19T16:32:38;0.70;;;0.70;;
8735;SDS011;4404;49.308;12.178;2023-05-19T16:34:40;0.80;;;0.80;;
8735;SDS011;4404;49.308;12.178;2023-05-19T16:36:42;0.70;;;0.70;;
8735;SDS011;4404;49.308;12.178;2023-05-19T16:38:46;0.77;;;0.77;;
8735;SDS011;4404;49.308;12.178;2023-05-19T16:40:48;0.70;;;0.70;;
8735;SDS011;4404;49.308;12.178;2023-05-19T16:42:51;0.80;;;0.80;;
8735;SDS011;4404;49.308;12.178;2023-05-19T16:44:53;0.80;;;0.80;;
8735;SDS011;4404;49.308;12.178;2023-05-19T16:46:55;0.70;;;0.70;;
8735;SDS011;4404;49.308;12.178;2023-05-19T16:48:57;0.77;;;0.77;;
8735;SDS011;4404;49.308;12.178;2023-05-19T16:50:59;0.70;;;0.70;;
8735;SDS011;4404;49.308;12.178;2023-05-19T16:53:01;0.70;;;0.70;;
8735;SDS011;4404;49.308;12.178;2023-05-19T16:55:08;0.70;;;0.70;;
8735;SDS011;4404;49.308;12.178;2023-05-19T16:57:15;0.70;;;0.70;;
8735;SDS011;4404;49.308;12.178;2023-05-19T16:59:17;0.80;;;0.80;;
8735;SDS011;4404;49.308;12.178;2023-05-19T17:01:19;0.80;;;0.80;;
8735;SDS011;4404;49.308;12.178;2023-05-19T17:03:21;0.80;;;0.80;;
8735;SDS011;4404;49.308;12.178;2023-05-19T17:05:24;0.70;;;0.70;;
8735;SDS011;4404;49.308;12.178;2023-05-19T17:07:26;0.60;;;0.60;;
8735;SDS011;4404;49.308;12.178;2023-05-19T17:09:29;0.70;;;0.70;;
8735;SDS011;4404;49.308;12.178;2023-05-19T17:11:32;0.60;;;0.60;;
8735;SDS011;4404;49.308;12.178;2023-05-19T17:13:34;0.70;;;0.70;;
8735;SDS011;4404;49.308;12.178;2023-05-19T17:15:36;0.70;;;0.70;;
8735;SDS011;4404;49.308;12.178;2023-05-19T17:17:38;0.60;;;0.60;;
8735;SDS011;4404;49.308;12.178;2023-05-19T17:19:40;0.80;;;0.80;;
8735;SDS011;4404;49.308;12.178;2023-05-19T17:21:42;0.70;;;0.70;;
8735;SDS011;4404;49.308;12.178;2023-05-19T17:23:45;0.70;;;0.70;;
8735;SDS011;4404;49.308;12.178;2023-05-19T17:25:47;0.70;;;0.70;;
8735;SDS011;4404;49.308;12.178;2023-05-19T17:27:50;0.80;;;0.80;;
8735;SDS011;4404;49.308;12.178;2023-05-19T17:29:52;0.70;;;0.70;;
8735;SDS011;4404;49.308;12.178;2023-05-19T17:31:54;0.70;;;0.70;;
8735;SDS011;4404;49.308;12.178;2023-05-19T17:33:56;0.70;;;0.70;;
8735;SDS011;4404;49.308;12.178;2023-05-19T17:36:00;0.70;;;0.70;;
8735;SDS011;4404;49.308;12.178;2023-05-19T17:38:03;0.70;;;0.70;;
8735;SDS011;4404;49.308;12.178;2023-05-19T17:40:05;0.73;;;0.73;;
8735;SDS011;4404;49.308;12.178;2023-05-19T17:42:09;0.80;;;0.80;;
8735;SDS011;4404;49.308;12.178;2023-05-19T17:44:12;0.80;;;0.80;;
8735;SDS011;4404;49.308;12.178;2023-05-19T17:46:15;0.87;;;0.87;;
8735;SDS011;4404;49.308;12.178;2023-05-19T17:48:17;0.80;;;0.80;;
8735;SDS011;4404;49.308;12.178;2023-05-19T17:50:19;0.80;;;0.80;;
8735;SDS011;4404;49.308;12.178;2023-05-19T17:52:21;0.70;;;0.70;;
8735;SDS011;4404;49.308;12.178;2023-05-19T17:54:24;0.80;;;0.80;;
8735;SDS011;4404;49.308;12.178;2023-05-19T17:56:27;0.80;;;0.80;;
8735;SDS011;4404;49.308;12.178;2023-05-19T17:58:33;0.80;;;0.80;;
8735;SDS011;4404;49.308;12.178;2023-05-19T18:00:38;0.80;;;0.80;;
8735;SDS011;4404;49.308;12.178;2023-05-19T18:02:41;0.70;;;0.70;;
8735;SDS011;4404;49.308;12.178;2023-05-19T18:04:44;0.80;;;0.80;;
8735;SDS011;4404;49.308;12.178;2023-05-19T18:06:46;0.80;;;0.80;;
8735;SDS011;4404;49.308;12.178;2023-05-19T18:08:51;0.70;;;0.70;;
8735;SDS011;4404;49.308;12.178;2023-05-19T18:10:56;0.70;;;0.70;;
